sensor_id;sensor_type;location;lat;lon;timestamp;P1;durP1;ratioP1;P2;durP2;ratioP2
49824;SDS011;35714;55.708;37.478;2022-11-20T00:03:33;9.07;;;4.90;;
49824;SDS011;35714;55.708;37.478;2022-11-20T00:06:02;8.48;;;4.72;;
49824;SDS011;35714;55.708;37.478;2022-11-20T00:08:29;8.13;;;4.78;;
49824;SDS011;35714;55.708;37.478;2022-11-20T00:10:55;9.13;;;4.57;;
49824;SDS011;35714;55.708;37.478;2022-11-20T00:13:20;8.57;;;4.78;;
49824;SDS011;35714;55.708;37.478;2022-11-20T00:15:46;9.70;;;4.80;;
49824;SDS011;35714;55.708;37.478;2022-11-20T00:18:12;7.25;;;4.18;;
49824;SDS011;35714;55.708;37.478;2022-11-20T00:20:37;8.07;;;4.68;;
49824;SDS011;35714;55.708;37.478;2022-11-20T00:23:03;11.80;;;6.03;;
49824;SDS011;35714;55.708;37.478;2022-11-20T00:25:29;10.40;;;5.57;;
49824;SDS011;35714;55.708;37.478;2022-11-20T00:27:55;11.05;;;5.30;;
49824;SDS011;35714;55.708;37.478;2022-11-20T00:30:20;10.25;;;6.07;;
49824;SDS011;35714;55.708;37.478;2022-11-20T00:32:46;9.80;;;6.03;;
49824;SDS011;35714;55.708;37.478;2022-11-20T00:35:12;11.85;;;5.75;;
49824;SDS011;35714;55.708;37.478;2022-11-20T00:37:38;9.85;;;5.43;;
49824;SDS011;35714;55.708;37.478;2022-11-20T00:40:03;9.43;;;5.68;;
49824;SDS011;35714;55.708;37.478;2022-11-20T00:42:29;10.00;;;4.88;;
49824;SDS011;35714;55.708;37.478;2022-11-20T00:44:57;9.38;;;5.07;;
49824;SDS011;35714;55.708;37.478;2022-11-20T00:47:23;8.77;;;5.10;;
49824;SDS011;35714;55.708;37.478;2022-11-20T00:49:49;10.77;;;5.63;;
49824;SDS011;35714;55.708;37.478;2022-11-20T00:52:15;11.05;;;5.68;;
49824;SDS011;35714;55.708;37.478;2022-11-20T00:54:40;9.32;;;5.80;;
49824;SDS011;35714;55.708;37.478;2022-11-20T00:57:06;10.35;;;5.50;;
49824;SDS011;35714;55.708;37.478;2022-11-20T00:59:31;10.35;;;5.57;;
49824;SDS011;35714;55.708;37.478;2022-11-20T01:01:57;8.82;;;5.18;;
49824;SDS011;35714;55.708;37.478;2022-11-20T01:04:23;8.20;;;4.95;;
49824;SDS011;35714;55.708;37.478;2022-11-20T01:06:48;8.02;;;4.45;;
49824;SDS011;35714;55.708;37.478;2022-11-20T01:09:14;9.57;;;5.05;;
49824;SDS011;35714;55.708;37.478;2022-11-20T01:11:41;8.80;;;5.10;;
49824;SDS011;35714;55.708;37.478;2022-11-20T01:14:13;9.07;;;4.88;;
49824;SDS011;35714;55.708;37.478;2022-11-20T01:16:42;8.15;;;4.85;;
49824;SDS011;35714;55.708;37.478;2022-11-20T01:19:10;9.38;;;5.07;;
49824;SDS011;35714;55.708;37.478;2022-11-20T01:21:39;9.23;;;5.10;;
49824;SDS011;35714;55.708;37.478;2022-11-20T01:24:07;8.25;;;4.68;;
49824;SDS011;35714;55.708;37.478;2022-11-20T01:26:36;8.30;;;4.20;;
49824;SDS011;35714;55.708;37.478;2022-11-20T01:29:03;10.55;;;3.83;;
49824;SDS011;35714;55.708;37.478;2022-11-20T01:31:30;7.55;;;4.45;;
49824;SDS011;35714;55.708;37.478;2022-11-20T01:33:59;8.20;;;4.60;;
49824;SDS011;35714;55.708;37.478;2022-11-20T01:36:27;8.75;;;4.63;;
49824;SDS011;35714;55.708;37.478;2022-11-20T01:38:55;7.80;;;5.07;;
49824;SDS011;35714;55.708;37.478;2022-11-20T01:41:26;7.22;;;4.15;;
49824;SDS011;35714;55.708;37.478;2022-11-20T01:44:13;8.75;;;4.80;;
49824;SDS011;35714;55.708;37.478;2022-11-20T01:46:42;9.10;;;4.40;;
49824;SDS011;35714;55.708;37.478;2022-11-20T01:49:23;9.50;;;4.80;;
49824;SDS011;35714;55.708;37.478;2022-11-20T01:52:00;6.93;;;4.32;;
49824;SDS011;35714;55.708;37.478;2022-11-20T01:54:40;9.48;;;4.70;;
49824;SDS011;35714;55.708;37.478;2022-11-20T01:57:12;9.05;;;4.63;;
49824;SDS011;35714;55.708;37.478;2022-11-20T01:59:40;9.23;;;4.95;;
49824;SDS011;35714;55.708;37.478;2022-11-20T02:02:10;8.23;;;4.35;;
49824;SDS011;35714;55.708;37.478;2022-11-20T02:04:36;8.60;;;4.63;;
49824;SDS011;35714;55.708;37.478;2022-11-20T02:07:02;8.57;;;4.68;;
49824;SDS011;35714;55.708;37.478;2022-11-20T02:09:30;8.00;;;4.32;;
49824;SDS011;35714;55.708;37.478;2022-11-20T02:11:56;7.32;;;4.45;;
49824;SDS011;35714;55.708;37.478;2022-11-20T02:14:23;9.50;;;4.55;;
49824;SDS011;35714;55.708;37.478;2022-11-20T02:16:50;7.15;;;4.00;;
49824;SDS011;35714;55.708;37.478;2022-11-20T02:19:20;7.82;;;4.13;;
49824;SDS011;35714;55.708;37.478;2022-11-20T02:24:28;8.27;;;4.35;;
49824;SDS011;35714;55.708;37.478;2022-11-20T02:26:59;7.95;;;4.60;;
49824;SDS011;35714;55.708;37.478;2022-11-20T02:29:29;7.63;;;4.47;;
49824;SDS011;35714;55.708;37.478;2022-11-20T02:32:00;8.75;;;4.45;;
49824;SDS011;35714;55.708;37.478;2022-11-20T02:34:27;7.55;;;4.55;;
49824;SDS011;35714;55.708;37.478;2022-11-20T02:36:54;8.57;;;4.32;;
49824;SDS011;35714;55.708;37.478;2022-11-20T02:39:21;7.60;;;4.60;;
49824;SDS011;35714;55.708;37.478;2022-11-20T02:41:51;7.85;;;3.95;;
49824;SDS011;35714;55.708;37.478;2022-11-20T02:44:19;8.88;;;4.55;;
49824;SDS011;35714;55.708;37.478;2022-11-20T02:46:45;7.50;;;4.03;;
49824;SDS011;35714;55.708;37.478;2022-11-20T02:49:11;8.43;;;5.00;;
49824;SDS011;35714;55.708;37.478;2022-11-20T02:51:37;8.15;;;4.30;;
49824;SDS011;35714;55.708;37.478;2022-11-20T02:54:02;9.10;;;4.53;;
49824;SDS011;35714;55.708;37.478;2022-11-20T02:56:30;7.65;;;3.92;;
49824;SDS011;35714;55.708;37.478;2022-11-20T02:58:55;7.75;;;4.25;;
49824;SDS011;35714;55.708;37.478;2022-11-20T03:01:22;9.32;;;4.65;;
49824;SDS011;35714;55.708;37.478;2022-11-20T03:03:47;8.18;;;4.55;;
49824;SDS011;35714;55.708;37.478;2022-11-20T03:06:17;8.88;;;4.47;;
49824;SDS011;35714;55.708;37.478;2022-11-20T03:08:43;7.43;;;3.63;;
49824;SDS011;35714;55.708;37.478;2022-11-20T03:11:09;8.18;;;4.38;;
49824;SDS011;35714;55.708;37.478;2022-11-20T03:13:35;6.60;;;3.85;;
49824;SDS011;35714;55.708;37.478;2022-11-20T03:16:05;8.10;;;4.80;;
49824;SDS011;35714;55.708;37.478;2022-11-20T03:18:38;8.13;;;4.25;;
49824;SDS011;35714;55.708;37.478;2022-11-20T03:21:05;9.07;;;4.38;;
49824;SDS011;35714;55.708;37.478;2022-11-20T03:23:32;7.53;;;4.15;;
49824;SDS011;35714;55.708;37.478;2022-11-20T03:26:07;7.30;;;3.90;;
49824;SDS011;35714;55.708;37.478;2022-11-20T03:28:33;7.38;;;3.78;;
49824;SDS011;35714;55.708;37.478;2022-11-20T03:31:04;6.85;;;4.05;;
49824;SDS011;35714;55.708;37.478;2022-11-20T03:33:31;7.93;;;4.22;;
49824;SDS011;35714;55.708;37.478;2022-11-20T03:36:00;7.60;;;4.07;;
49824;SDS011;35714;55.708;37.478;2022-11-20T03:38:28;10.60;;;4.82;;
49824;SDS011;35714;55.708;37.478;2022-11-20T03:41:00;9.00;;;4.43;;
49824;SDS011;35714;55.708;37.478;2022-11-20T03:43:30;7.65;;;4.38;;
49824;SDS011;35714;55.708;37.478;2022-11-20T03:45:56;9.25;;;4.70;;
49824;SDS011;35714;55.708;37.478;2022-11-20T03:48:21;7.57;;;4.28;;
49824;SDS011;35714;55.708;37.478;2022-11-20T03:50:47;8.38;;;4.38;;
49824;SDS011;35714;55.708;37.478;2022-11-20T03:53:13;8.52;;;3.95;;
49824;SDS011;35714;55.708;37.478;2022-11-20T03:55:40;8.18;;;4.10;;
49824;SDS011;35714;55.708;37.478;2022-11-20T03:58:05;9.57;;;4.30;;
49824;SDS011;35714;55.708;37.478;2022-11-20T04:00:31;7.90;;;4.80;;
49824;SDS011;35714;55.708;37.478;2022-11-20T04:02:57;8.13;;;4.32;;
49824;SDS011;35714;55.708;37.478;2022-11-20T04:05:24;10.85;;;5.40;;
49824;SDS011;35714;55.708;37.478;2022-11-20T04:07:49;9.73;;;4.68;;
49824;SDS011;35714;55.708;37.478;2022-11-20T04:10:15;7.60;;;4.05;;
49824;SDS011;35714;55.708;37.478;2022-11-20T04:12:41;11.23;;;4.55;;
49824;SDS011;35714;55.708;37.478;2022-11-20T04:15:07;8.38;;;4.15;;
49824;SDS011;35714;55.708;37.478;2022-11-20T04:17:32;8.25;;;3.75;;
49824;SDS011;35714;55.708;37.478;2022-11-20T04:19:58;8.95;;;4.82;;
49824;SDS011;35714;55.708;37.478;2022-11-20T04:22:24;8.23;;;4.43;;
49824;SDS011;35714;55.708;37.478;2022-11-20T04:24:50;8.52;;;3.92;;
49824;SDS011;35714;55.708;37.478;2022-11-20T04:27:15;8.48;;;4.00;;
49824;SDS011;35714;55.708;37.478;2022-11-20T04:29:41;8.02;;;4.00;;
49824;SDS011;35714;55.708;37.478;2022-11-20T04:32:07;8.02;;;4.03;;
49824;SDS011;35714;55.708;37.478;2022-11-20T04:34:32;8.32;;;4.30;;
49824;SDS011;35714;55.708;37.478;2022-11-20T04:36:58;8.50;;;4.45;;
49824;SDS011;35714;55.708;37.478;2022-11-20T04:39:24;9.82;;;4.18;;
49824;SDS011;35714;55.708;37.478;2022-11-20T04:41:49;8.40;;;4.47;;
49824;SDS011;35714;55.708;37.478;2022-11-20T04:44:35;10.05;;;4.70;;
49824;SDS011;35714;55.708;37.478;2022-11-20T04:47:01;10.32;;;4.22;;
49824;SDS011;35714;55.708;37.478;2022-11-20T04:49:26;8.15;;;4.10;;
49824;SDS011;35714;55.708;37.478;2022-11-20T04:51:55;8.65;;;4.47;;
49824;SDS011;35714;55.708;37.478;2022-11-20T04:54:20;9.15;;;4.97;;
49824;SDS011;35714;55.708;37.478;2022-11-20T04:56:49;7.45;;;4.22;;
49824;SDS011;35714;55.708;37.478;2022-11-20T04:59:15;10.15;;;4.88;;
49824;SDS011;35714;55.708;37.478;2022-11-20T05:01:41;8.05;;;4.35;;
49824;SDS011;35714;55.708;37.478;2022-11-20T05:04:07;9.65;;;4.68;;
49824;SDS011;35714;55.708;37.478;2022-11-20T05:06:33;9.50;;;4.55;;
49824;SDS011;35714;55.708;37.478;2022-11-20T05:08:59;9.95;;;5.32;;
49824;SDS011;35714;55.708;37.478;2022-11-20T05:11:26;9.43;;;5.05;;
49824;SDS011;35714;55.708;37.478;2022-11-20T05:13:54;12.68;;;5.60;;
49824;SDS011;35714;55.708;37.478;2022-11-20T05:16:21;11.75;;;6.60;;
49824;SDS011;35714;55.708;37.478;2022-11-20T05:18:48;9.05;;;4.60;;
49824;SDS011;35714;55.708;37.478;2022-11-20T05:21:15;9.10;;;4.90;;
49824;SDS011;35714;55.708;37.478;2022-11-20T05:23:41;10.02;;;5.10;;
49824;SDS011;35714;55.708;37.478;2022-11-20T05:26:11;9.57;;;4.65;;
49824;SDS011;35714;55.708;37.478;2022-11-20T05:28:38;9.95;;;5.20;;
49824;SDS011;35714;55.708;37.478;2022-11-20T05:31:05;9.45;;;4.45;;
49824;SDS011;35714;55.708;37.478;2022-11-20T05:33:32;6.88;;;4.38;;
49824;SDS011;35714;55.708;37.478;2022-11-20T05:35:59;9.90;;;4.68;;
49824;SDS011;35714;55.708;37.478;2022-11-20T05:38:25;8.73;;;5.22;;
49824;SDS011;35714;55.708;37.478;2022-11-20T05:40:50;8.15;;;4.47;;
49824;SDS011;35714;55.708;37.478;2022-11-20T05:43:16;8.65;;;4.88;;
49824;SDS011;35714;55.708;37.478;2022-11-20T05:45:42;7.57;;;4.57;;
49824;SDS011;35714;55.708;37.478;2022-11-20T05:48:07;9.43;;;4.53;;
49824;SDS011;35714;55.708;37.478;2022-11-20T05:50:33;8.60;;;5.22;;
49824;SDS011;35714;55.708;37.478;2022-11-20T05:52:59;9.35;;;4.88;;
49824;SDS011;35714;55.708;37.478;2022-11-20T05:55:25;8.43;;;4.30;;
49824;SDS011;35714;55.708;37.478;2022-11-20T05:57:52;9.95;;;5.28;;
49824;SDS011;35714;55.708;37.478;2022-11-20T06:00:20;10.02;;;5.18;;
49824;SDS011;35714;55.708;37.478;2022-11-20T06:02:45;9.38;;;5.10;;
49824;SDS011;35714;55.708;37.478;2022-11-20T06:05:11;9.70;;;5.18;;
49824;SDS011;35714;55.708;37.478;2022-11-20T06:07:37;9.93;;;5.00;;
49824;SDS011;35714;55.708;37.478;2022-11-20T06:10:03;10.05;;;4.65;;
49824;SDS011;35714;55.708;37.478;2022-11-20T06:12:30;10.60;;;5.40;;
49824;SDS011;35714;55.708;37.478;2022-11-20T06:14:58;9.98;;;5.35;;
49824;SDS011;35714;55.708;37.478;2022-11-20T06:17:24;11.82;;;5.18;;
49824;SDS011;35714;55.708;37.478;2022-11-20T06:19:49;8.18;;;4.70;;
49824;SDS011;35714;55.708;37.478;2022-11-20T06:22:15;10.85;;;5.05;;
49824;SDS011;35714;55.708;37.478;2022-11-20T06:24:41;11.05;;;5.28;;
49824;SDS011;35714;55.708;37.478;2022-11-20T06:27:06;9.18;;;4.65;;
49824;SDS011;35714;55.708;37.478;2022-11-20T06:29:32;9.43;;;4.35;;
49824;SDS011;35714;55.708;37.478;2022-11-20T06:31:58;9.25;;;4.68;;
49824;SDS011;35714;55.708;37.478;2022-11-20T06:34:23;9.05;;;4.53;;
49824;SDS011;35714;55.708;37.478;2022-11-20T06:36:49;10.13;;;5.18;;
49824;SDS011;35714;55.708;37.478;2022-11-20T06:39:15;10.35;;;5.10;;
49824;SDS011;35714;55.708;37.478;2022-11-20T06:41:40;10.35;;;5.35;;
49824;SDS011;35714;55.708;37.478;2022-11-20T06:44:06;9.07;;;4.90;;
49824;SDS011;35714;55.708;37.478;2022-11-20T06:46:32;10.73;;;5.45;;
49824;SDS011;35714;55.708;37.478;2022-11-20T06:48:57;9.43;;;5.45;;
49824;SDS011;35714;55.708;37.478;2022-11-20T06:51:23;11.13;;;5.55;;
49824;SDS011;35714;55.708;37.478;2022-11-20T06:53:49;10.93;;;5.32;;
49824;SDS011;35714;55.708;37.478;2022-11-20T06:56:15;12.27;;;5.88;;
49824;SDS011;35714;55.708;37.478;2022-11-20T06:58:41;10.88;;;5.40;;
49824;SDS011;35714;55.708;37.478;2022-11-20T07:01:10;10.40;;;5.03;;
49824;SDS011;35714;55.708;37.478;2022-11-20T07:03:38;12.00;;;5.43;;
49824;SDS011;35714;55.708;37.478;2022-11-20T07:06:04;12.05;;;6.30;;
49824;SDS011;35714;55.708;37.478;2022-11-20T07:08:30;11.50;;;5.70;;
49824;SDS011;35714;55.708;37.478;2022-11-20T07:10:57;12.27;;;5.95;;
49824;SDS011;35714;55.708;37.478;2022-11-20T07:13:25;10.15;;;5.85;;
49824;SDS011;35714;55.708;37.478;2022-11-20T07:15:51;9.77;;;5.53;;
49824;SDS011;35714;55.708;37.478;2022-11-20T07:18:17;9.45;;;5.13;;
49824;SDS011;35714;55.708;37.478;2022-11-20T07:20:42;11.50;;;5.55;;
49824;SDS011;35714;55.708;37.478;2022-11-20T07:23:08;10.32;;;5.80;;
49824;SDS011;35714;55.708;37.478;2022-11-20T07:25:34;12.15;;;5.97;;
49824;SDS011;35714;55.708;37.478;2022-11-20T07:28:00;11.18;;;5.90;;
49824;SDS011;35714;55.708;37.478;2022-11-20T07:30:26;10.30;;;5.55;;
49824;SDS011;35714;55.708;37.478;2022-11-20T07:32:53;12.13;;;6.18;;
49824;SDS011;35714;55.708;37.478;2022-11-20T07:35:20;11.25;;;5.90;;
49824;SDS011;35714;55.708;37.478;2022-11-20T07:37:47;11.48;;;5.65;;
49824;SDS011;35714;55.708;37.478;2022-11-20T07:40:14;12.00;;;6.25;;
49824;SDS011;35714;55.708;37.478;2022-11-20T07:42:52;12.85;;;6.22;;
49824;SDS011;35714;55.708;37.478;2022-11-20T07:45:20;12.15;;;6.15;;
49824;SDS011;35714;55.708;37.478;2022-11-20T07:47:46;13.40;;;7.00;;
49824;SDS011;35714;55.708;37.478;2022-11-20T07:50:13;14.00;;;6.55;;
49824;SDS011;35714;55.708;37.478;2022-11-20T07:52:39;13.48;;;6.20;;
49824;SDS011;35714;55.708;37.478;2022-11-20T07:55:06;11.82;;;6.28;;
49824;SDS011;35714;55.708;37.478;2022-11-20T07:57:32;18.40;;;7.38;;
49824;SDS011;35714;55.708;37.478;2022-11-20T07:59:58;13.63;;;6.22;;
49824;SDS011;35714;55.708;37.478;2022-11-20T08:02:24;11.13;;;5.90;;
49824;SDS011;35714;55.708;37.478;2022-11-20T08:04:50;13.90;;;6.90;;
49824;SDS011;35714;55.708;37.478;2022-11-20T08:07:15;14.38;;;6.57;;
49824;SDS011;35714;55.708;37.478;2022-11-20T08:09:41;16.67;;;7.53;;
49824;SDS011;35714;55.708;37.478;2022-11-20T08:12:18;15.65;;;7.68;;
49824;SDS011;35714;55.708;37.478;2022-11-20T08:15:04;26.15;;;8.93;;
49824;SDS011;35714;55.708;37.478;2022-11-20T08:17:31;15.15;;;6.75;;
49824;SDS011;35714;55.708;37.478;2022-11-20T08:19:57;11.80;;;7.00;;
49824;SDS011;35714;55.708;37.478;2022-11-20T08:22:22;15.27;;;6.95;;
49824;SDS011;35714;55.708;37.478;2022-11-20T08:24:48;13.20;;;7.13;;
49824;SDS011;35714;55.708;37.478;2022-11-20T08:27:14;16.23;;;7.35;;
49824;SDS011;35714;55.708;37.478;2022-11-20T08:29:39;19.55;;;7.95;;
49824;SDS011;35714;55.708;37.478;2022-11-20T08:32:05;18.02;;;9.15;;
49824;SDS011;35714;55.708;37.478;2022-11-20T08:34:31;14.25;;;8.52;;
49824;SDS011;35714;55.708;37.478;2022-11-20T08:36:56;18.70;;;8.48;;
49824;SDS011;35714;55.708;37.478;2022-11-20T08:39:22;19.40;;;10.27;;
49824;SDS011;35714;55.708;37.478;2022-11-20T08:41:48;16.38;;;8.68;;
49824;SDS011;35714;55.708;37.478;2022-11-20T08:44:13;17.50;;;8.52;;
49824;SDS011;35714;55.708;37.478;2022-11-20T08:46:40;18.65;;;9.43;;
49824;SDS011;35714;55.708;37.478;2022-11-20T08:49:07;16.65;;;8.55;;
49824;SDS011;35714;55.708;37.478;2022-11-20T08:51:35;14.25;;;8.52;;
49824;SDS011;35714;55.708;37.478;2022-11-20T08:54:03;20.55;;;8.68;;
49824;SDS011;35714;55.708;37.478;2022-11-20T08:56:30;17.30;;;9.10;;
49824;SDS011;35714;55.708;37.478;2022-11-20T08:58:56;17.63;;;8.45;;
49824;SDS011;35714;55.708;37.478;2022-11-20T09:01:22;20.45;;;9.85;;
49824;SDS011;35714;55.708;37.478;2022-11-20T09:03:48;18.95;;;8.65;;
49824;SDS011;35714;55.708;37.478;2022-11-20T09:06:15;16.02;;;8.50;;
49824;SDS011;35714;55.708;37.478;2022-11-20T09:08:41;20.17;;;9.15;;
49824;SDS011;35714;55.708;37.478;2022-11-20T09:11:07;19.25;;;9.98;;
49824;SDS011;35714;55.708;37.478;2022-11-20T09:13:34;20.23;;;8.40;;
49824;SDS011;35714;55.708;37.478;2022-11-20T09:16:05;18.00;;;9.27;;
49824;SDS011;35714;55.708;37.478;2022-11-20T09:18:33;20.00;;;8.60;;
49824;SDS011;35714;55.708;37.478;2022-11-20T09:21:02;22.35;;;11.15;;
49824;SDS011;35714;55.708;37.478;2022-11-20T09:23:34;22.02;;;10.70;;
49824;SDS011;35714;55.708;37.478;2022-11-20T09:26:04;22.35;;;11.15;;
49824;SDS011;35714;55.708;37.478;2022-11-20T09:28:31;19.45;;;9.68;;
49824;SDS011;35714;55.708;37.478;2022-11-20T09:30:58;25.40;;;11.20;;
49824;SDS011;35714;55.708;37.478;2022-11-20T09:33:24;23.67;;;11.05;;
49824;SDS011;35714;55.708;37.478;2022-11-20T09:35:50;22.77;;;11.27;;
49824;SDS011;35714;55.708;37.478;2022-11-20T09:38:16;29.25;;;11.20;;
49824;SDS011;35714;55.708;37.478;2022-11-20T09:40:57;25.98;;;11.25;;
49824;SDS011;35714;55.708;37.478;2022-11-20T09:43:41;28.08;;;11.55;;
49824;SDS011;35714;55.708;37.478;2022-11-20T09:46:25;20.27;;;10.75;;
49824;SDS011;35714;55.708;37.478;2022-11-20T09:51:52;23.88;;;9.82;;
49824;SDS011;35714;55.708;37.478;2022-11-20T09:54:29;21.20;;;10.82;;
49824;SDS011;35714;55.708;37.478;2022-11-20T09:56:59;22.88;;;10.18;;
49824;SDS011;35714;55.708;37.478;2022-11-20T09:59:41;20.63;;;10.70;;
49824;SDS011;35714;55.708;37.478;2022-11-20T10:07:48;16.90;;;8.93;;
49824;SDS011;35714;55.708;37.478;2022-11-20T10:10:45;19.05;;;9.77;;
49824;SDS011;35714;55.708;37.478;2022-11-20T10:21:55;26.30;;;12.48;;
49824;SDS011;35714;55.708;37.478;2022-11-20T10:29:43;19.45;;;9.30;;
49824;SDS011;35714;55.708;37.478;2022-11-20T10:32:14;23.20;;;11.45;;
49824;SDS011;35714;55.708;37.478;2022-11-20T10:34:48;18.55;;;10.27;;
49824;SDS011;35714;55.708;37.478;2022-11-20T10:37:30;22.05;;;11.93;;
49824;SDS011;35714;55.708;37.478;2022-11-20T10:42:59;18.67;;;9.45;;
49824;SDS011;35714;55.708;37.478;2022-11-20T10:48:22;21.80;;;10.25;;
49824;SDS011;35714;55.708;37.478;2022-11-20T10:53:40;21.27;;;10.70;;
49824;SDS011;35714;55.708;37.478;2022-11-20T11:01:28;16.15;;;8.13;;
49824;SDS011;35714;55.708;37.478;2022-11-20T11:03:54;18.25;;;8.65;;
49824;SDS011;35714;55.708;37.478;2022-11-20T11:06:27;15.63;;;7.35;;
49824;SDS011;35714;55.708;37.478;2022-11-20T11:09:01;20.75;;;6.85;;
49824;SDS011;35714;55.708;37.478;2022-11-20T11:11:34;16.30;;;6.95;;
49824;SDS011;35714;55.708;37.478;2022-11-20T11:14:10;12.50;;;6.00;;
49824;SDS011;35714;55.708;37.478;2022-11-20T11:16:48;11.52;;;5.80;;
49824;SDS011;35714;55.708;37.478;2022-11-20T11:19:16;12.43;;;6.05;;
49824;SDS011;35714;55.708;37.478;2022-11-20T11:22:00;11.07;;;5.40;;
49824;SDS011;35714;55.708;37.478;2022-11-20T11:24:37;10.27;;;5.53;;
49824;SDS011;35714;55.708;37.478;2022-11-20T11:27:04;13.68;;;6.57;;
49824;SDS011;35714;55.708;37.478;2022-11-20T11:29:37;12.48;;;6.07;;
49824;SDS011;35714;55.708;37.478;2022-11-20T11:32:04;10.00;;;5.85;;
49824;SDS011;35714;55.708;37.478;2022-11-20T11:34:30;11.95;;;5.40;;
49824;SDS011;35714;55.708;37.478;2022-11-20T11:36:57;10.93;;;5.85;;
49824;SDS011;35714;55.708;37.478;2022-11-20T11:39:24;10.93;;;6.65;;
49824;SDS011;35714;55.708;37.478;2022-11-20T11:41:52;9.95;;;5.00;;
49824;SDS011;35714;55.708;37.478;2022-11-20T11:44:28;14.95;;;6.15;;
49824;SDS011;35714;55.708;37.478;2022-11-20T11:47:23;14.45;;;7.43;;
49824;SDS011;35714;55.708;37.478;2022-11-20T11:55:18;15.38;;;7.75;;
49824;SDS011;35714;55.708;37.478;2022-11-20T12:00:58;11.63;;;5.97;;
49824;SDS011;35714;55.708;37.478;2022-11-20T12:03:36;17.03;;;6.83;;
49824;SDS011;35714;55.708;37.478;2022-11-20T12:06:10;13.43;;;6.43;;
49824;SDS011;35714;55.708;37.478;2022-11-20T12:16:30;12.77;;;6.50;;
49824;SDS011;35714;55.708;37.478;2022-11-20T12:19:01;12.63;;;7.00;;
49824;SDS011;35714;55.708;37.478;2022-11-20T12:34:52;12.52;;;6.43;;
49824;SDS011;35714;55.708;37.478;2022-11-20T12:37:33;14.43;;;6.68;;
49824;SDS011;35714;55.708;37.478;2022-11-20T12:40:18;9.68;;;5.47;;
49824;SDS011;35714;55.708;37.478;2022-11-20T12:51:58;12.07;;;6.15;;
49824;SDS011;35714;55.708;37.478;2022-11-20T12:58:44;12.30;;;8.23;;
49824;SDS011;35714;55.708;37.478;2022-11-20T13:04:15;14.65;;;7.10;;
49824;SDS011;35714;55.708;37.478;2022-11-20T13:06:42;13.63;;;6.90;;
49824;SDS011;35714;55.708;37.478;2022-11-20T13:09:10;12.05;;;6.97;;
49824;SDS011;35714;55.708;37.478;2022-11-20T13:17:10;13.13;;;6.57;;
49824;SDS011;35714;55.708;37.478;2022-11-20T13:19:45;11.65;;;5.93;;
49824;SDS011;35714;55.708;37.478;2022-11-20T13:22:23;9.88;;;4.70;;
49824;SDS011;35714;55.708;37.478;2022-11-20T13:24:51;12.20;;;6.32;;
49824;SDS011;35714;55.708;37.478;2022-11-20T13:27:18;10.23;;;5.65;;
49824;SDS011;35714;55.708;37.478;2022-11-20T13:29:47;9.02;;;5.25;;
49824;SDS011;35714;55.708;37.478;2022-11-20T13:32:25;12.40;;;6.13;;
49824;SDS011;35714;55.708;37.478;2022-11-20T13:35:01;12.65;;;6.72;;
49824;SDS011;35714;55.708;37.478;2022-11-20T13:37:31;10.52;;;6.47;;
49824;SDS011;35714;55.708;37.478;2022-11-20T13:40:05;11.55;;;6.13;;
49824;SDS011;35714;55.708;37.478;2022-11-20T13:45:25;13.57;;;7.57;;
49824;SDS011;35714;55.708;37.478;2022-11-20T13:47:56;12.32;;;7.28;;
49824;SDS011;35714;55.708;37.478;2022-11-20T13:56:47;12.43;;;7.03;;
49824;SDS011;35714;55.708;37.478;2022-11-20T14:02:13;14.05;;;7.55;;
49824;SDS011;35714;55.708;37.478;2022-11-20T14:04:42;16.00;;;7.30;;
49824;SDS011;35714;55.708;37.478;2022-11-20T14:07:12;13.10;;;7.10;;
49824;SDS011;35714;55.708;37.478;2022-11-20T14:09:38;13.43;;;7.30;;
49824;SDS011;35714;55.708;37.478;2022-11-20T14:12:04;15.60;;;7.50;;
49824;SDS011;35714;55.708;37.478;2022-11-20T14:14:47;14.57;;;7.10;;
49824;SDS011;35714;55.708;37.478;2022-11-20T14:19:45;13.68;;;7.43;;
49824;SDS011;35714;55.708;37.478;2022-11-20T14:25:05;15.70;;;7.30;;
49824;SDS011;35714;55.708;37.478;2022-11-20T14:27:44;16.55;;;8.07;;
49824;SDS011;35714;55.708;37.478;2022-11-20T14:30:23;16.95;;;7.90;;
49824;SDS011;35714;55.708;37.478;2022-11-20T14:32:51;11.80;;;7.07;;
49824;SDS011;35714;55.708;37.478;2022-11-20T14:35:43;14.70;;;7.57;;
49824;SDS011;35714;55.708;37.478;2022-11-20T14:38:16;14.88;;;6.97;;
49824;SDS011;35714;55.708;37.478;2022-11-20T14:40:43;13.45;;;7.20;;
49824;SDS011;35714;55.708;37.478;2022-11-20T14:43:21;14.27;;;7.60;;
49824;SDS011;35714;55.708;37.478;2022-11-20T14:46:03;16.10;;;7.15;;
49824;SDS011;35714;55.708;37.478;2022-11-20T14:48:43;13.40;;;6.88;;
49824;SDS011;35714;55.708;37.478;2022-11-20T14:51:23;13.25;;;7.05;;
49824;SDS011;35714;55.708;37.478;2022-11-20T14:53:52;13.50;;;6.75;;
49824;SDS011;35714;55.708;37.478;2022-11-20T14:56:22;16.83;;;6.95;;
49824;SDS011;35714;55.708;37.478;2022-11-20T14:58:56;11.68;;;6.72;;
49824;SDS011;35714;55.708;37.478;2022-11-20T15:01:26;13.60;;;6.93;;
49824;SDS011;35714;55.708;37.478;2022-11-20T15:04:26;12.90;;;6.22;;
49824;SDS011;35714;55.708;37.478;2022-11-20T15:06:49;12.73;;;6.75;;
49824;SDS011;35714;55.708;37.478;2022-11-20T15:09:16;10.07;;;6.03;;
49824;SDS011;35714;55.708;37.478;2022-11-20T15:11:52;12.27;;;7.32;;
49824;SDS011;35714;55.708;37.478;2022-11-20T15:14:18;12.68;;;6.63;;
49824;SDS011;35714;55.708;37.478;2022-11-20T15:16:44;13.02;;;7.45;;
49824;SDS011;35714;55.708;37.478;2022-11-20T15:19:13;11.82;;;6.90;;
49824;SDS011;35714;55.708;37.478;2022-11-20T15:21:43;14.43;;;7.03;;
49824;SDS011;35714;55.708;37.478;2022-11-20T15:24:09;16.50;;;7.22;;
49824;SDS011;35714;55.708;37.478;2022-11-20T15:26:35;11.90;;;7.43;;
49824;SDS011;35714;55.708;37.478;2022-11-20T15:29:07;13.60;;;7.45;;
49824;SDS011;35714;55.708;37.478;2022-11-20T15:31:38;12.75;;;7.35;;
49824;SDS011;35714;55.708;37.478;2022-11-20T15:34:11;12.40;;;6.55;;
49824;SDS011;35714;55.708;37.478;2022-11-20T15:36:38;11.75;;;6.45;;
49824;SDS011;35714;55.708;37.478;2022-11-20T15:39:04;12.25;;;6.60;;
49824;SDS011;35714;55.708;37.478;2022-11-20T15:41:32;13.52;;;6.65;;
49824;SDS011;35714;55.708;37.478;2022-11-20T15:43:59;13.63;;;5.90;;
49824;SDS011;35714;55.708;37.478;2022-11-20T15:46:28;13.82;;;6.63;;
49824;SDS011;35714;55.708;37.478;2022-11-20T15:49:02;13.23;;;6.60;;
49824;SDS011;35714;55.708;37.478;2022-11-20T15:53:58;12.82;;;6.50;;
49824;SDS011;35714;55.708;37.478;2022-11-20T15:56:24;15.75;;;7.22;;
49824;SDS011;35714;55.708;37.478;2022-11-20T15:58:50;13.07;;;7.10;;
49824;SDS011;35714;55.708;37.478;2022-11-20T16:01:20;12.32;;;7.38;;
49824;SDS011;35714;55.708;37.478;2022-11-20T16:03:47;13.45;;;7.63;;
49824;SDS011;35714;55.708;37.478;2022-11-20T16:06:13;12.38;;;7.50;;
49824;SDS011;35714;55.708;37.478;2022-11-20T16:08:41;16.23;;;8.02;;
49824;SDS011;35714;55.708;37.478;2022-11-20T16:11:07;13.57;;;6.95;;
49824;SDS011;35714;55.708;37.478;2022-11-20T16:13:35;13.50;;;7.40;;
49824;SDS011;35714;55.708;37.478;2022-11-20T16:16:21;15.38;;;7.43;;
49824;SDS011;35714;55.708;37.478;2022-11-20T16:18:49;11.27;;;7.03;;
49824;SDS011;35714;55.708;37.478;2022-11-20T16:21:15;13.63;;;7.05;;
49824;SDS011;35714;55.708;37.478;2022-11-20T16:23:41;11.60;;;6.65;;
49824;SDS011;35714;55.708;37.478;2022-11-20T16:26:11;13.20;;;6.57;;
49824;SDS011;35714;55.708;37.478;2022-11-20T16:28:38;11.48;;;6.80;;